createdAt,value
2022-12-03T00:02:22.249Z,48.30
2022-12-03T00:04:49.018Z,50.78
2022-12-03T00:07:15.593Z,47.03
2022-12-03T00:09:42.716Z,49.88
2022-12-03T00:12:09.286Z,48.05
2022-12-03T00:14:38.856Z,47.63
2022-12-03T00:17:09.465Z,47.45
2022-12-03T00:19:36.023Z,50.50
2022-12-03T00:22:02.549Z,45.22
2022-12-03T00:24:29.061Z,45.55
2022-12-03T00:26:55.757Z,48.78
2022-12-03T00:29:22.267Z,49.35
2022-12-03T00:31:48.776Z,47.72
2022-12-03T00:34:15.300Z,50.92
2022-12-03T00:36:41.893Z,46.63
2022-12-03T00:39:08.439Z,45.80
2022-12-03T00:41:35.090Z,48.85
2022-12-03T00:44:01.653Z,46.33
2022-12-03T00:46:28.275Z,45.03
2022-12-03T00:48:54.837Z,46.67
2022-12-03T00:51:21.397Z,45.42
2022-12-03T00:53:47.882Z,47.42
2022-12-03T00:56:14.439Z,47.45
2022-12-03T00:58:40.916Z,43.70
2022-12-03T01:01:07.449Z,41.55
2022-12-03T01:03:34.174Z,41.60
2022-12-03T01:06:00.700Z,41.15
2022-12-03T01:08:27.272Z,40.10
2022-12-03T01:10:53.775Z,45.00
2022-12-03T01:13:20.330Z,41.63
2022-12-03T01:15:46.916Z,42.50
2022-12-03T01:18:13.508Z,40.88
2022-12-03T01:20:40.048Z,39.58
2022-12-03T01:23:06.583Z,38.55
2022-12-03T01:25:33.192Z,39.65
2022-12-03T01:27:59.713Z,42.25
2022-12-03T01:30:26.320Z,40.05
2022-12-03T01:32:52.831Z,42.28
2022-12-03T01:35:19.395Z,40.97
2022-12-03T01:37:45.930Z,40.40
2022-12-03T01:40:19.413Z,40.55
2022-12-03T01:42:46.008Z,38.78
2022-12-03T01:45:23.731Z,38.65
2022-12-03T01:47:50.875Z,40.20
2022-12-03T01:50:26.676Z,39.17
2022-12-03T01:52:55.831Z,37.35
2022-12-03T01:55:25.140Z,38.50
2022-12-03T01:57:56.266Z,38.97
2022-12-03T02:00:25.046Z,36.40
2022-12-03T02:02:55.075Z,37.03
2022-12-03T02:05:26.117Z,40.58
2022-12-03T02:07:53.159Z,36.90
2022-12-03T02:10:31.614Z,38.75
2022-12-03T02:13:01.828Z,37.20
2022-12-03T02:15:28.437Z,40.25
2022-12-03T02:17:55.542Z,39.42
2022-12-03T02:20:22.417Z,35.92
2022-12-03T02:23:01.047Z,37.10
2022-12-03T02:25:31.981Z,35.88
2022-12-03T02:27:59.775Z,38.65
2022-12-03T02:30:28.984Z,37.65
2022-12-03T02:32:56.427Z,37.55
2022-12-03T02:35:32.881Z,39.22
2022-12-03T02:38:13.417Z,38.50
2022-12-03T02:40:41.028Z,39.72
2022-12-03T02:43:07.963Z,37.15
2022-12-03T02:45:38.224Z,38.90
2022-12-03T02:48:17.673Z,39.38
2022-12-03T02:50:51.560Z,38.72
2022-12-03T02:53:22.812Z,39.10
2022-12-03T02:55:50.769Z,38.53
2022-12-03T02:58:18.355Z,37.03
2022-12-03T03:00:45.876Z,34.28
2022-12-03T03:03:13.112Z,38.75
2022-12-03T03:05:40.547Z,39.80
2022-12-03T03:08:09.208Z,38.75
2022-12-03T03:10:37.609Z,38.03
2022-12-03T03:13:09.902Z,36.65
2022-12-03T03:15:38.013Z,35.47
2022-12-03T03:18:06.098Z,35.10
2022-12-03T03:20:32.906Z,35.25
2022-12-03T03:23:19.995Z,33.60
2022-12-03T03:26:10.429Z,36.38
2022-12-03T03:28:41.697Z,36.17
2022-12-03T03:31:11.196Z,35.25
2022-12-03T03:33:41.597Z,34.58
2022-12-03T03:36:09.280Z,33.03
2022-12-03T03:38:37.325Z,31.65
2022-12-03T03:41:06.958Z,32.63
2022-12-03T03:43:35.931Z,33.45
2022-12-03T03:46:06.392Z,31.45
2022-12-03T03:48:34.656Z,32.47
2022-12-03T03:51:03.672Z,33.00
2022-12-03T03:53:30.988Z,31.95
2022-12-03T03:55:57.616Z,30.83
2022-12-03T03:58:24.209Z,32.88
2022-12-03T04:00:51.734Z,33.72
2022-12-03T04:03:18.301Z,33.85
2022-12-03T04:05:45.087Z,32.78
2022-12-03T04:08:11.662Z,33.70
2022-12-03T04:10:56.607Z,32.65
2022-12-03T04:13:23.169Z,29.85
2022-12-03T04:15:49.821Z,30.77
2022-12-03T04:18:34.857Z,31.02
2022-12-03T04:21:19.889Z,31.67
2022-12-03T04:23:46.438Z,34.10
2022-12-03T04:26:31.778Z,35.20
2022-12-03T04:28:58.472Z,32.60
2022-12-03T04:31:43.356Z,35.80
2022-12-03T04:34:29.057Z,33.10
2022-12-03T04:36:55.949Z,36.00
2022-12-03T04:39:22.740Z,36.33
2022-12-03T04:41:49.357Z,35.25
2022-12-03T04:44:35.579Z,35.78
2022-12-03T04:47:12.568Z,33.10
2022-12-03T04:49:44.111Z,33.90
2022-12-03T04:52:12.193Z,33.33
2022-12-03T04:54:39.151Z,32.47
2022-12-03T04:57:06.534Z,34.13
2022-12-03T04:59:33.944Z,34.10
2022-12-03T05:02:00.582Z,34.97
2022-12-03T05:04:27.156Z,34.72
2022-12-03T05:06:53.829Z,33.78
2022-12-03T05:09:20.411Z,35.45
2022-12-03T05:11:47.120Z,35.70
2022-12-03T05:14:13.786Z,36.55
2022-12-03T05:16:40.905Z,34.78
2022-12-03T05:19:09.024Z,35.58
2022-12-03T05:21:36.057Z,36.67
2022-12-03T05:24:02.926Z,35.45
2022-12-03T05:26:29.545Z,32.70
2022-12-03T05:28:56.132Z,34.63
2022-12-03T05:31:22.959Z,36.08
2022-12-03T05:33:49.599Z,38.20
2022-12-03T05:36:16.198Z,38.58
2022-12-03T05:38:42.706Z,34.85
2022-12-03T05:41:27.603Z,39.10
2022-12-03T05:43:54.163Z,37.70
2022-12-03T05:46:20.787Z,36.15
2022-12-03T05:48:47.426Z,34.17
2022-12-03T05:51:13.984Z,36.38
2022-12-03T05:53:40.527Z,37.38
2022-12-03T05:56:07.508Z,39.20
2022-12-03T05:58:34.043Z,39.13
2022-12-03T06:01:00.541Z,42.22
2022-12-03T06:03:27.382Z,41.30
2022-12-03T06:05:53.995Z,39.85
2022-12-03T06:08:20.606Z,39.67
2022-12-03T06:10:47.179Z,41.20
2022-12-03T06:13:13.763Z,40.28
2022-12-03T06:15:43.669Z,40.65
2022-12-03T06:18:10.925Z,43.13
2022-12-03T06:20:37.563Z,41.97
2022-12-03T06:23:04.105Z,39.40
2022-12-03T06:25:30.712Z,40.80
2022-12-03T06:27:57.373Z,40.85
2022-12-03T06:30:23.908Z,39.38
2022-12-03T06:32:50.441Z,38.83
2022-12-03T06:35:17.129Z,37.92
2022-12-03T06:37:43.688Z,37.97
2022-12-03T06:40:10.768Z,36.45
2022-12-03T06:42:37.295Z,38.08
2022-12-03T06:45:05.194Z,36.13
2022-12-03T06:47:31.731Z,38.47
2022-12-03T06:49:58.229Z,38.67
2022-12-03T06:52:24.964Z,39.10
2022-12-03T06:54:51.648Z,38.17
2022-12-03T06:57:18.496Z,37.10
2022-12-03T06:59:45.063Z,37.42
2022-12-03T07:02:12.740Z,36.00
2022-12-03T07:04:43.400Z,34.00
2022-12-03T07:07:12.767Z,33.92
2022-12-03T07:09:39.532Z,34.75
2022-12-03T07:12:06.167Z,35.35
2022-12-03T07:14:32.760Z,33.60
2022-12-03T07:16:59.351Z,32.72
2022-12-03T07:19:32.073Z,33.63
2022-12-03T07:21:59.288Z,33.58
2022-12-03T07:24:25.829Z,34.40
2022-12-03T07:26:52.372Z,33.70
2022-12-03T07:29:19.035Z,33.33
2022-12-03T07:31:45.704Z,36.58
2022-12-03T07:34:12.386Z,34.90
2022-12-03T07:36:38.968Z,39.72
2022-12-03T07:39:05.647Z,34.83
2022-12-03T07:41:32.303Z,37.20
2022-12-03T07:43:58.893Z,34.80
2022-12-03T07:46:25.520Z,34.45
2022-12-03T07:48:52.089Z,35.35
2022-12-03T07:51:18.681Z,34.58
2022-12-03T07:53:45.225Z,35.53
2022-12-03T07:56:11.751Z,34.42
2022-12-03T07:58:38.615Z,31.98
2022-12-03T08:01:05.382Z,34.90
2022-12-03T08:03:31.995Z,32.40
2022-12-03T08:05:58.501Z,31.02
2022-12-03T08:08:25.003Z,34.25
2022-12-03T08:10:51.446Z,29.90
2022-12-03T08:13:18.936Z,33.20
2022-12-03T08:15:45.740Z,30.75
2022-12-03T08:18:16.077Z,31.25
2022-12-03T08:20:44.855Z,34.65
2022-12-03T08:23:34.452Z,35.38
2022-12-03T08:26:02.103Z,34.72
2022-12-03T08:28:28.663Z,34.28
2022-12-03T08:31:12.323Z,32.65
2022-12-03T08:33:40.237Z,35.00
2022-12-03T08:36:14.385Z,36.03
2022-12-03T08:38:41.107Z,32.65
2022-12-03T08:41:14.367Z,35.67
2022-12-03T08:43:42.682Z,40.88
2022-12-03T08:46:18.724Z,45.05
2022-12-03T08:48:49.000Z,38.42
2022-12-03T08:51:25.481Z,36.25
2022-12-03T08:54:01.548Z,35.23
2022-12-03T08:59:01.342Z,37.00
2022-12-03T09:01:34.211Z,35.42
2022-12-03T09:04:26.339Z,39.67
2022-12-03T09:06:53.992Z,36.72
2022-12-03T09:09:20.817Z,33.65
2022-12-03T09:11:47.713Z,34.63
2022-12-03T09:14:18.554Z,32.67
2022-12-03T09:16:45.680Z,33.83
2022-12-03T09:19:12.307Z,35.08
2022-12-03T09:21:38.833Z,34.65
2022-12-03T09:24:05.608Z,32.92
2022-12-03T09:26:32.138Z,46.83
2022-12-03T09:28:58.699Z,35.72
2022-12-03T09:31:25.223Z,35.63
2022-12-03T09:33:51.780Z,34.58
2022-12-03T09:36:18.279Z,37.28
2022-12-03T09:38:47.841Z,34.08
2022-12-03T09:41:15.001Z,35.63
2022-12-03T09:46:29.581Z,44.15
2022-12-03T09:48:56.699Z,38.25
2022-12-03T09:51:29.733Z,36.40
2022-12-03T09:53:59.185Z,35.65
2022-12-03T09:56:25.743Z,41.65
2022-12-03T09:58:52.627Z,40.45
2022-12-03T10:01:21.140Z,37.67
2022-12-03T10:03:51.686Z,36.85
2022-12-03T10:06:23.248Z,38.38
2022-12-03T10:08:53.542Z,33.92
2022-12-03T10:11:22.657Z,33.35
2022-12-03T10:13:52.554Z,33.13
2022-12-03T10:16:21.032Z,33.78
2022-12-03T10:18:59.773Z,35.95
2022-12-03T10:21:31.311Z,34.33
2022-12-03T10:24:22.513Z,34.75
2022-12-03T10:26:50.931Z,35.55
2022-12-03T10:29:34.254Z,32.92
2022-12-03T10:32:07.579Z,33.10
2022-12-03T10:34:39.238Z,32.10
2022-12-03T10:37:22.474Z,32.08
2022-12-03T10:40:09.087Z,32.65
2022-12-03T10:42:38.129Z,31.65
2022-12-03T10:45:14.521Z,29.98
2022-12-03T10:47:42.039Z,34.20
2022-12-03T10:50:19.537Z,32.83
2022-12-03T10:52:46.664Z,36.20
2022-12-03T10:55:14.651Z,34.13
2022-12-03T10:57:45.287Z,35.85
2022-12-03T11:00:19.731Z,34.58
2022-12-03T11:02:54.642Z,35.03
2022-12-03T11:05:27.262Z,32.15
2022-12-03T11:07:54.132Z,31.00
2022-12-03T11:10:21.317Z,32.83
2022-12-03T11:13:25.560Z,33.03
2022-12-03T11:33:40.320Z,35.50
2022-12-03T11:36:06.824Z,36.63
2022-12-03T11:38:52.343Z,35.42
2022-12-03T11:41:25.769Z,36.80
2022-12-03T11:43:52.268Z,35.65
2022-12-03T11:46:28.751Z,37.42
2022-12-03T11:48:59.076Z,36.22
2022-12-03T11:51:27.516Z,37.17
2022-12-03T11:53:57.428Z,37.03
2022-12-03T11:56:26.326Z,35.70
2022-12-03T11:59:02.202Z,34.35
2022-12-03T12:01:38.237Z,36.20
2022-12-03T12:04:07.603Z,37.58
2022-12-03T12:06:42.565Z,36.03
2022-12-03T12:09:09.671Z,36.63
2022-12-03T12:11:41.779Z,38.03
2022-12-03T12:14:10.285Z,48.60
2022-12-03T12:16:43.092Z,38.55
2022-12-03T12:19:43.093Z,41.10
2022-12-03T12:22:28.370Z,37.08
2022-12-03T12:25:00.268Z,39.25
2022-12-03T12:27:37.767Z,38.70
2022-12-03T12:30:12.818Z,42.97
2022-12-03T12:33:16.650Z,39.53
2022-12-03T12:35:43.229Z,36.85
2022-12-03T12:38:15.406Z,36.17
2022-12-03T12:40:45.537Z,39.70
2022-12-03T12:43:14.440Z,42.50
2022-12-03T12:45:43.612Z,47.80
2022-12-03T12:48:10.131Z,39.05
2022-12-03T12:50:38.005Z,43.08
2022-12-03T12:53:16.632Z,42.45
2022-12-03T12:55:43.186Z,42.03
2022-12-03T12:58:18.434Z,38.60
2022-12-03T13:00:50.528Z,39.78
2022-12-03T13:03:20.071Z,40.40
2022-12-03T13:05:48.750Z,37.50
2022-12-03T13:08:29.702Z,40.38
2022-12-03T13:11:02.785Z,40.45
2022-12-03T13:13:43.604Z,40.13
2022-12-03T13:16:26.394Z,38.78
2022-12-03T13:19:00.801Z,42.08
2022-12-03T13:21:47.612Z,38.78
2022-12-03T13:24:36.993Z,40.50
2022-12-03T13:27:19.560Z,39.00
2022-12-03T13:29:50.608Z,38.83
2022-12-03T13:32:22.455Z,44.88
2022-12-03T13:34:50.551Z,40.28
2022-12-03T13:37:22.953Z,39.72
2022-12-03T13:39:52.480Z,40.40
2022-12-03T13:42:39.230Z,39.85
2022-12-03T13:45:14.832Z,40.27
2022-12-03T13:47:43.839Z,39.35
2022-12-03T13:50:25.019Z,39.90
2022-12-03T13:52:52.868Z,40.45
2022-12-03T13:55:26.457Z,40.45
2022-12-03T13:57:53.721Z,41.72
2022-12-03T14:00:20.534Z,42.15
2022-12-03T14:02:47.287Z,41.13
2022-12-03T14:05:14.046Z,40.53
2022-12-03T14:07:40.645Z,40.97
2022-12-03T14:10:09.235Z,40.83
2022-12-03T14:12:35.831Z,40.22
2022-12-03T14:15:05.319Z,35.08
2022-12-03T14:17:32.537Z,40.83
2022-12-03T14:20:01.329Z,36.58
2022-12-03T14:22:28.694Z,36.58
2022-12-03T14:24:55.607Z,40.88
2022-12-03T14:27:24.707Z,35.85
2022-12-03T14:29:51.911Z,34.10
2022-12-03T14:32:19.129Z,37.67
2022-12-03T14:34:45.726Z,37.20
2022-12-03T14:37:12.481Z,40.40
2022-12-03T14:39:39.539Z,42.00
2022-12-03T14:42:15.427Z,36.15
2022-12-03T14:44:50.270Z,35.93
2022-12-03T14:47:19.932Z,37.90
2022-12-03T14:49:46.882Z,36.88
2022-12-03T14:52:13.512Z,40.08
2022-12-03T14:54:42.627Z,38.53
2022-12-03T14:57:11.537Z,36.70
2022-12-03T14:59:39.044Z,39.42
2022-12-03T15:02:05.611Z,36.33
2022-12-03T15:04:32.299Z,34.42
2022-12-03T15:06:58.848Z,34.63
2022-12-03T15:09:25.378Z,33.10
2022-12-03T15:11:51.865Z,32.20
2022-12-03T15:14:18.503Z,34.10
2022-12-03T15:16:45.059Z,31.17
2022-12-03T15:19:14.334Z,33.88
2022-12-03T15:21:40.826Z,34.25
2022-12-03T15:24:07.707Z,31.77
2022-12-03T15:26:34.214Z,29.58
2022-12-03T15:29:00.731Z,29.20
2022-12-03T15:31:27.303Z,32.08
2022-12-03T15:33:53.832Z,31.70
2022-12-03T15:36:20.390Z,29.42
2022-12-03T15:38:47.009Z,32.78
2022-12-03T15:41:29.138Z,31.92
2022-12-03T15:44:01.913Z,30.60
2022-12-03T15:46:28.998Z,33.85
2022-12-03T15:48:55.967Z,33.97
2022-12-03T15:51:22.843Z,35.33
2022-12-03T15:53:49.413Z,31.48
2022-12-03T15:56:16.213Z,31.02
2022-12-03T15:58:42.831Z,29.77
2022-12-03T16:01:09.628Z,29.08
2022-12-03T16:03:36.847Z,30.30
2022-12-03T16:06:03.720Z,28.67
2022-12-03T16:08:30.445Z,27.42
2022-12-03T16:10:57.159Z,26.17
2022-12-03T16:13:23.664Z,27.13
2022-12-03T16:15:50.281Z,26.45
2022-12-03T16:18:17.620Z,27.70
2022-12-03T16:20:44.143Z,28.63
2022-12-03T16:23:10.665Z,30.52
2022-12-03T16:25:37.195Z,27.55
2022-12-03T16:28:03.815Z,29.75
2022-12-03T16:30:30.416Z,28.02
2022-12-03T16:32:57.023Z,27.70
2022-12-03T16:35:23.593Z,28.80
2022-12-03T16:37:50.071Z,27.08
2022-12-03T16:40:16.608Z,28.88
2022-12-03T16:42:43.138Z,30.23
2022-12-03T16:45:10.007Z,28.10
2022-12-03T16:47:36.649Z,30.08
2022-12-03T16:50:09.789Z,28.85
2022-12-03T16:52:38.199Z,29.15
2022-12-03T16:55:05.130Z,28.63
2022-12-03T16:57:33.865Z,27.33
2022-12-03T17:00:00.937Z,29.08
2022-12-03T17:02:27.871Z,27.58
2022-12-03T17:04:54.987Z,28.90
2022-12-03T17:07:21.551Z,28.08
2022-12-03T17:09:48.641Z,29.58
2022-12-03T17:12:15.198Z,32.05
2022-12-03T17:14:41.708Z,32.55
2022-12-03T17:17:08.247Z,34.10
2022-12-03T17:19:34.947Z,31.55
2022-12-03T17:22:01.626Z,31.58
2022-12-03T17:24:28.157Z,30.92
2022-12-03T17:26:54.660Z,31.85
2022-12-03T17:29:21.145Z,29.73
2022-12-03T17:31:47.756Z,30.15
2022-12-03T17:34:14.333Z,34.38
2022-12-03T17:36:40.860Z,31.38
2022-12-03T17:39:07.405Z,32.15
2022-12-03T17:41:33.912Z,29.20
2022-12-03T17:44:02.704Z,32.13
2022-12-03T17:46:32.550Z,31.58
2022-12-03T17:48:59.116Z,31.95
2022-12-03T17:51:25.613Z,34.17
2022-12-03T17:53:52.211Z,30.80
2022-12-03T17:56:18.821Z,31.08
2022-12-03T17:58:45.324Z,30.35
2022-12-03T18:01:11.893Z,31.70
2022-12-03T18:03:38.530Z,31.42
2022-12-03T18:06:05.425Z,30.23
2022-12-03T18:08:31.905Z,30.13
2022-12-03T18:10:58.440Z,28.80
2022-12-03T18:13:25.071Z,28.83
2022-12-03T18:15:51.691Z,30.60
2022-12-03T18:18:18.232Z,29.10
2022-12-03T18:20:44.790Z,29.05
2022-12-03T18:23:12.086Z,29.80
2022-12-03T18:25:38.672Z,29.00
2022-12-03T18:28:05.223Z,29.58
2022-12-03T18:30:31.723Z,30.75
2022-12-03T18:32:58.250Z,31.45
2022-12-03T18:35:24.798Z,28.88
2022-12-03T18:37:51.617Z,30.42
2022-12-03T18:40:22.294Z,28.60
2022-12-03T18:42:48.842Z,29.67
2022-12-03T18:45:15.925Z,31.25
2022-12-03T18:47:42.892Z,31.88
2022-12-03T18:50:11.343Z,31.58
2022-12-03T18:52:38.362Z,31.17
2022-12-03T18:55:05.842Z,30.50
2022-12-03T18:57:32.349Z,29.88
2022-12-03T18:59:58.894Z,29.95
2022-12-03T19:03:01.312Z,30.83
2022-12-03T19:07:39.325Z,31.83
2022-12-03T19:10:06.554Z,29.45
2022-12-03T19:12:33.720Z,31.55
2022-12-03T19:15:00.228Z,30.88
2022-12-03T19:17:27.387Z,32.03
2022-12-03T19:19:54.992Z,31.52
2022-12-03T19:22:21.935Z,27.77
2022-12-03T19:24:48.432Z,27.52
2022-12-03T19:27:14.911Z,28.13
2022-12-03T19:29:41.883Z,27.40
2022-12-03T19:32:08.893Z,29.15
2022-12-03T19:34:35.866Z,27.17
2022-12-03T19:37:02.389Z,28.45
2022-12-03T19:39:28.824Z,29.25
2022-12-03T19:41:55.292Z,28.95
2022-12-03T19:44:21.843Z,27.05
2022-12-03T19:46:49.758Z,30.65
2022-12-03T19:49:18.389Z,27.85
2022-12-03T19:51:44.856Z,29.00
2022-12-03T19:54:12.003Z,27.60
2022-12-03T19:56:38.619Z,26.65
2022-12-03T19:59:05.346Z,26.60
2022-12-03T20:01:34.377Z,26.75
2022-12-03T20:04:02.657Z,28.65
2022-12-03T20:06:32.151Z,30.95
2022-12-03T20:09:06.761Z,27.75
2022-12-03T20:11:34.711Z,27.02
2022-12-03T20:14:04.597Z,26.73
2022-12-03T20:16:31.706Z,24.63
2022-12-03T20:19:00.960Z,26.27
2022-12-03T20:21:31.402Z,27.75
2022-12-03T20:23:58.138Z,25.25
2022-12-03T20:26:25.324Z,26.55
2022-12-03T20:28:54.155Z,26.40
2022-12-03T20:31:23.136Z,26.77
2022-12-03T20:33:52.058Z,27.80
2022-12-03T20:36:23.250Z,28.83
2022-12-03T20:38:55.115Z,31.35
2022-12-03T20:41:21.767Z,27.13
2022-12-03T20:43:49.038Z,30.35
2022-12-03T20:46:18.140Z,30.90
2022-12-03T20:48:45.541Z,29.15
2022-12-03T20:51:15.918Z,27.38
2022-12-03T20:53:43.315Z,28.05
2022-12-03T20:56:10.691Z,26.55
2022-12-03T20:58:37.315Z,28.20
2022-12-03T21:01:16.019Z,28.38
2022-12-03T21:03:43.907Z,29.55
2022-12-03T21:06:11.322Z,28.23
2022-12-03T21:08:41.964Z,27.65
2022-12-03T21:11:14.901Z,29.65
2022-12-03T21:13:42.488Z,28.33
2022-12-03T21:16:11.923Z,29.98
2022-12-03T21:18:39.071Z,26.95
2022-12-03T21:21:06.605Z,32.10
2022-12-03T21:23:33.906Z,29.85
2022-12-03T21:26:09.622Z,29.40
2022-12-03T21:28:38.371Z,29.48
2022-12-03T21:31:07.657Z,28.92
2022-12-03T21:33:34.692Z,33.85
2022-12-03T21:36:02.179Z,30.00
2022-12-03T21:38:30.007Z,30.52
2022-12-03T21:40:57.547Z,32.10
2022-12-03T21:43:24.630Z,29.90
2022-12-03T21:45:51.723Z,30.23
2022-12-03T21:48:18.945Z,31.23
2022-12-03T21:50:46.259Z,31.30
2022-12-03T21:53:12.915Z,29.88
2022-12-03T21:55:40.796Z,28.67
2022-12-03T21:58:08.536Z,27.20
2022-12-03T22:00:35.548Z,29.05
2022-12-03T22:03:02.163Z,29.98
2022-12-03T22:05:28.794Z,30.38
2022-12-03T22:07:55.295Z,29.95
2022-12-03T22:10:21.880Z,28.92
2022-12-03T22:12:48.345Z,31.77
2022-12-03T22:15:18.682Z,31.48
2022-12-03T22:17:45.734Z,32.15
2022-12-03T22:20:12.356Z,30.50
2022-12-03T22:22:38.896Z,30.23
2022-12-03T22:25:05.479Z,30.13
2022-12-03T22:27:31.925Z,31.17
2022-12-03T22:29:58.370Z,31.02
2022-12-03T22:32:24.908Z,28.08
2022-12-03T22:34:51.531Z,31.27
2022-12-03T22:37:17.988Z,28.45
2022-12-03T22:39:44.501Z,28.77
2022-12-03T22:42:11.027Z,30.73
2022-12-03T22:44:37.555Z,31.23
2022-12-03T22:47:04.309Z,28.85
2022-12-03T22:49:30.800Z,29.67
2022-12-03T22:51:57.222Z,28.40
2022-12-03T22:54:24.530Z,30.63
2022-12-03T22:56:51.058Z,29.45
2022-12-03T22:59:17.520Z,29.45
2022-12-03T23:18:23.618Z,29.75
2022-12-03T23:20:52.771Z,31.02
2022-12-03T23:23:20.408Z,34.38
2022-12-03T23:26:16.640Z,30.58
2022-12-03T23:28:45.412Z,28.52
2022-12-03T23:31:21.930Z,29.30
2022-12-03T23:33:48.975Z,28.40
2022-12-03T23:36:16.236Z,29.75
2022-12-03T23:38:42.900Z,28.38
2022-12-03T23:41:15.790Z,30.17
2022-12-03T23:43:42.880Z,28.83
2022-12-03T23:46:11.971Z,28.02
2022-12-03T23:48:38.561Z,27.50
2022-12-03T23:51:10.984Z,27.80
2022-12-03T23:53:38.429Z,29.23
2022-12-03T23:56:06.423Z,27.52
2022-12-03T23:58:33.818Z,26.70
